createdAt,value
2018-12-11T00:01:11.475Z,88.12
2018-12-11T00:03:40.887Z,87.48
2018-12-11T00:06:10.583Z,87.78
2018-12-11T00:08:40.819Z,87.37
2018-12-11T00:11:10.536Z,86.85
2018-12-11T00:13:40.225Z,86.54
2018-12-11T00:16:10.140Z,86.41
2018-12-11T00:18:39.854Z,87.21
2018-12-11T00:21:09.559Z,86.71
2018-12-11T00:23:39.345Z,86.74
2018-12-11T00:26:09.156Z,86.16
2018-12-11T00:28:38.967Z,85.68
2018-12-11T00:31:08.689Z,86.05
2018-12-11T00:33:38.410Z,85.93
2018-12-11T00:36:08.141Z,85.34
2018-12-11T00:38:37.897Z,84.78
2018-12-11T00:41:07.658Z,85.35
2018-12-11T00:43:37.369Z,85.86
2018-12-11T00:46:07.132Z,85.47
2018-12-11T00:48:36.889Z,85.37
2018-12-11T00:51:06.619Z,85.72
2018-12-11T00:53:36.313Z,85.57
2018-12-11T00:56:06.042Z,85.05
2018-12-11T00:58:35.375Z,84.87
2018-12-11T01:01:04.906Z,84.70
2018-12-11T01:03:34.721Z,84.62
2018-12-11T01:06:04.554Z,84.49
2018-12-11T01:08:34.265Z,84.39
2018-12-11T01:11:03.682Z,84.08
2018-12-11T01:13:33.429Z,84.25
2018-12-11T01:16:02.753Z,84.49
2018-12-11T01:18:32.124Z,84.48
2018-12-11T01:21:01.893Z,83.79
2018-12-11T01:23:31.273Z,83.19
2018-12-11T01:26:00.993Z,82.90
2018-12-11T01:28:30.705Z,83.69
2018-12-11T01:31:00.409Z,83.36
2018-12-11T01:33:30.287Z,82.95
2018-12-11T01:36:00.115Z,82.48
2018-12-11T01:38:47.881Z,82.10
2018-12-11T01:50:47.255Z,82.53
2018-12-11T01:53:31.127Z,81.95
2018-12-11T01:59:07.550Z,81.67
2018-12-11T02:41:58.671Z,80.93
2018-12-11T03:05:54.966Z,81.61
2018-12-11T03:08:27.346Z,81.00
2018-12-11T03:10:56.697Z,81.23
2018-12-11T03:13:26.068Z,80.93
2018-12-11T03:18:55.714Z,81.45
2018-12-11T03:21:25.129Z,81.41
2018-12-11T03:23:54.821Z,81.49
2018-12-11T03:26:24.593Z,81.90
2018-12-11T03:28:53.976Z,82.23
2018-12-11T03:31:24.811Z,82.59
2018-12-11T03:33:54.594Z,82.87
2018-12-11T03:36:24.522Z,83.41
2018-12-11T03:38:53.895Z,84.33
2018-12-11T03:41:24.237Z,84.84
2018-12-11T03:43:54.057Z,84.97
2018-12-11T03:46:23.485Z,85.53
2018-12-11T03:48:53.431Z,85.77
2018-12-11T03:51:23.208Z,86.64
2018-12-11T03:53:52.984Z,86.47
2018-12-11T03:56:22.931Z,87.53
2018-12-11T03:58:52.639Z,87.58
2018-12-11T04:01:22.251Z,87.82
2018-12-11T04:03:51.899Z,88.42
2018-12-11T04:06:21.634Z,88.29
2018-12-11T04:08:51.345Z,89.08
2018-12-11T04:11:21.309Z,88.56
2018-12-11T04:13:51.108Z,89.00
2018-12-11T04:16:20.625Z,89.62
2018-12-11T04:18:50.327Z,89.92
2018-12-11T04:21:20.033Z,89.85
2018-12-11T04:23:49.753Z,90.06
2018-12-11T04:26:19.507Z,90.61
2018-12-11T04:28:49.206Z,90.10
2018-12-11T04:31:18.937Z,90.62
2018-12-11T04:33:48.751Z,90.36
2018-12-11T04:36:18.541Z,89.82
2018-12-11T04:38:48.218Z,90.05
2018-12-11T04:41:17.949Z,89.33
2018-12-11T04:43:47.594Z,88.96
2018-12-11T04:46:17.292Z,88.25
2018-12-11T04:48:46.993Z,88.52
2018-12-11T04:51:16.705Z,88.21
2018-12-11T04:53:46.461Z,87.94
2018-12-11T04:56:28.724Z,88.20
2018-12-11T05:01:58.459Z,88.09
2018-12-11T05:04:28.215Z,88.65
2018-12-11T05:06:57.959Z,88.53
2018-12-11T05:09:28.014Z,89.13
2018-12-11T05:11:57.699Z,89.26
2018-12-11T05:14:27.400Z,90.60
2018-12-11T05:16:57.210Z,91.27
2018-12-11T05:19:26.893Z,90.90
2018-12-11T05:21:56.283Z,91.03
2018-12-11T05:24:25.672Z,91.53
2018-12-11T05:26:55.414Z,91.50
2018-12-11T05:29:25.153Z,92.62
2018-12-11T05:31:58.100Z,92.61
2018-12-11T05:34:31.807Z,93.00
2018-12-11T05:37:05.060Z,93.26
2018-12-11T05:39:56.453Z,93.00
2018-12-11T05:42:26.193Z,93.83
2018-12-11T05:44:56.141Z,94.31
2018-12-11T05:47:26.317Z,94.09
2018-12-11T05:49:55.700Z,93.64
2018-12-11T05:52:25.456Z,94.31
2018-12-11T05:54:54.861Z,94.33
2018-12-11T05:57:25.136Z,93.91
2018-12-11T05:59:54.761Z,94.58
2018-12-11T06:02:24.416Z,94.44
2018-12-11T06:04:53.762Z,94.60
2018-12-11T06:07:23.432Z,94.41
2018-12-11T06:09:53.150Z,94.46
2018-12-11T06:12:22.857Z,94.32
2018-12-11T06:14:52.529Z,95.35
2018-12-11T06:17:22.284Z,95.72
2018-12-11T06:19:52.052Z,95.86
2018-12-11T06:22:21.483Z,95.22
2018-12-11T06:24:51.159Z,95.90
2018-12-11T06:27:20.851Z,96.02
2018-12-11T06:29:50.571Z,95.93
2018-12-11T06:32:20.401Z,96.33
2018-12-11T06:34:50.117Z,95.59
2018-12-11T06:37:19.821Z,95.92
2018-12-11T06:39:49.545Z,96.33
2018-12-11T06:42:18.841Z,96.93
2018-12-11T06:44:48.567Z,96.32
2018-12-11T06:47:18.295Z,96.31
2018-12-11T06:49:47.685Z,96.06
2018-12-11T06:52:17.331Z,96.43
2018-12-11T06:54:46.754Z,96.20
2018-12-11T06:57:16.525Z,96.88
2018-12-11T06:59:45.881Z,97.56
2018-12-11T07:02:15.610Z,96.52
2018-12-11T07:04:45.306Z,96.55
2018-12-11T07:07:14.653Z,96.31
2018-12-11T07:09:44.275Z,96.88
2018-12-11T07:12:14.031Z,96.65
2018-12-11T07:14:43.734Z,95.80
2018-12-11T07:17:13.376Z,96.41
2018-12-11T07:19:43.051Z,96.06
2018-12-11T07:22:12.824Z,96.19
2018-12-11T07:24:42.500Z,95.29
2018-12-11T07:27:12.292Z,95.48
2018-12-11T07:29:42.018Z,95.96
2018-12-11T07:32:11.681Z,95.65
2018-12-11T07:34:41.057Z,95.46
2018-12-11T07:37:10.811Z,95.98
2018-12-11T07:39:40.137Z,96.03
2018-12-11T07:42:09.889Z,95.74
2018-12-11T07:44:39.525Z,96.30
2018-12-11T07:47:09.251Z,95.66
2018-12-11T07:49:38.925Z,95.87
2018-12-11T07:52:08.635Z,95.65
2018-12-11T07:54:38.417Z,94.40
2018-12-11T07:57:08.107Z,94.66
2018-12-11T07:59:37.816Z,92.74
2018-12-11T08:02:07.615Z,92.86
2018-12-11T08:04:37.353Z,92.74
2018-12-11T08:07:07.034Z,92.98
2018-12-11T08:09:36.724Z,93.18
2018-12-11T08:12:08.448Z,92.20
2018-12-11T08:14:37.610Z,92.05
2018-12-11T08:17:06.941Z,91.98
2018-12-11T08:19:36.332Z,92.23
2018-12-11T08:22:06.002Z,92.07
2018-12-11T08:24:35.387Z,91.86
2018-12-11T08:27:04.735Z,91.51
2018-12-11T08:29:34.503Z,91.56
2018-12-11T08:32:04.503Z,91.56
2018-12-11T08:34:34.215Z,90.52
2018-12-11T08:37:10.186Z,90.13
2018-12-11T08:39:39.484Z,89.65
2018-12-11T08:42:09.194Z,89.97
2018-12-11T08:44:38.849Z,89.99
2018-12-11T08:47:08.560Z,89.98
2018-12-11T08:49:38.233Z,89.80
2018-12-11T08:52:07.596Z,89.72
2018-12-11T08:54:37.308Z,89.63
2018-12-11T08:57:06.642Z,89.66
2018-12-11T08:59:36.340Z,89.53
2018-12-11T09:02:06.198Z,89.76
2018-12-11T09:04:35.511Z,89.09
2018-12-11T09:07:04.913Z,88.01
2018-12-11T09:09:34.623Z,87.10
2018-12-11T09:12:04.057Z,87.34
2018-12-11T09:14:33.792Z,86.94
2018-12-11T09:17:10.049Z,85.61
2018-12-11T09:19:34.840Z,85.31
2018-12-11T09:22:04.304Z,84.12
2018-12-11T09:24:33.668Z,83.15
2018-12-11T09:27:03.181Z,83.50
2018-12-11T09:29:32.836Z,82.55
2018-12-11T09:32:02.227Z,82.87
2018-12-11T09:34:32.563Z,83.45
2018-12-11T09:37:02.473Z,83.62
2018-12-11T09:39:32.200Z,84.66
2018-12-11T09:42:07.065Z,84.21
2018-12-11T09:44:33.831Z,84.06
2018-12-11T09:47:03.317Z,83.52
2018-12-11T09:49:33.066Z,83.41
2018-12-11T09:52:02.454Z,83.41
2018-12-11T09:54:32.174Z,82.26
2018-12-11T09:57:01.854Z,83.50
2018-12-11T09:59:31.558Z,83.18
2018-12-11T10:02:01.275Z,83.71
2018-12-11T10:04:30.962Z,83.41
2018-12-11T10:07:00.675Z,83.38
2018-12-11T10:09:30.097Z,83.82
2018-12-11T10:11:59.788Z,83.87
2018-12-11T10:14:29.490Z,83.97
2018-12-11T10:16:59.224Z,83.65
2018-12-11T10:19:28.940Z,84.17
2018-12-11T10:21:58.732Z,83.31
2018-12-11T10:24:28.457Z,83.20
2018-12-11T10:26:58.840Z,83.35
2018-12-11T10:29:28.561Z,83.63
2018-12-11T10:31:58.364Z,83.36
2018-12-11T10:34:28.072Z,83.18
2018-12-11T10:36:57.791Z,82.49
2018-12-11T10:39:27.178Z,82.05
2018-12-11T10:41:56.908Z,81.59
2018-12-11T10:44:27.504Z,80.37
2018-12-11T10:46:57.247Z,80.02
2018-12-11T10:49:26.939Z,79.28
2018-12-11T10:51:56.759Z,79.07
2018-12-11T10:54:26.444Z,79.54
2018-12-11T10:56:56.133Z,79.31
2018-12-11T10:59:25.860Z,78.72
2018-12-11T11:02:05.752Z,78.87
2018-12-11T11:04:35.469Z,77.73
2018-12-11T11:07:05.318Z,76.43
2018-12-11T11:09:34.743Z,76.21
2018-12-11T11:12:04.591Z,76.30
2018-12-11T11:14:34.482Z,75.55
2018-12-11T11:17:04.343Z,74.65
2018-12-11T11:19:34.072Z,75.28
2018-12-11T11:22:03.863Z,75.00
2018-12-11T11:24:33.631Z,75.05
2018-12-11T11:27:02.958Z,74.74
2018-12-11T11:29:32.350Z,74.05
2018-12-11T11:32:02.040Z,73.45
2018-12-11T11:34:39.478Z,74.07
2018-12-11T11:37:09.188Z,74.16
2018-12-11T11:39:38.923Z,73.33
2018-12-11T11:42:09.588Z,73.37
2018-12-11T11:44:40.320Z,72.94
2018-12-11T11:47:10.678Z,73.28
2018-12-11T11:49:40.374Z,73.48
2018-12-11T11:52:10.140Z,73.43
2018-12-11T11:54:39.457Z,74.50
2018-12-11T11:57:09.174Z,74.55
2018-12-11T11:59:38.859Z,74.79
2018-12-11T12:02:08.711Z,75.22
2018-12-11T12:04:38.386Z,75.79
2018-12-11T12:07:08.131Z,76.62
2018-12-11T12:09:37.832Z,77.14
2018-12-11T12:12:07.232Z,77.71
2018-12-11T12:14:36.968Z,78.22
2018-12-11T12:17:06.561Z,77.94
2018-12-11T12:19:36.309Z,78.29
2018-12-11T12:22:05.656Z,78.27
2018-12-11T12:24:35.392Z,78.83
2018-12-11T12:27:05.129Z,78.13
2018-12-11T12:29:34.822Z,78.33
2018-12-11T12:32:04.556Z,78.08
2018-12-11T12:34:34.012Z,78.92
2018-12-11T12:37:03.934Z,78.87
2018-12-11T12:39:33.285Z,78.74
2018-12-11T12:42:02.997Z,78.64
2018-12-11T12:44:32.722Z,78.54
2018-12-11T12:47:02.370Z,78.57
2018-12-11T12:49:32.083Z,78.63
2018-12-11T12:52:01.429Z,78.97
2018-12-11T12:54:31.091Z,78.85
2018-12-11T12:57:00.442Z,78.92
2018-12-11T12:59:30.168Z,79.34
2018-12-11T13:01:59.819Z,79.28
2018-12-11T13:04:29.547Z,79.83
2018-12-11T13:06:58.895Z,79.76
2018-12-11T13:09:28.740Z,79.63
2018-12-11T13:11:58.424Z,80.28
2018-12-11T13:14:28.223Z,79.46
2018-12-11T13:16:57.941Z,79.65
2018-12-11T13:19:27.635Z,79.85
2018-12-11T13:21:57.379Z,79.44
2018-12-11T13:24:27.067Z,79.27
2018-12-11T13:26:56.755Z,79.19
2018-12-11T13:29:26.124Z,79.20
2018-12-11T13:31:55.484Z,79.19
2018-12-11T13:34:25.017Z,79.82
2018-12-11T13:36:54.370Z,80.35
2018-12-11T13:39:23.810Z,80.38
2018-12-11T13:41:53.226Z,81.00
2018-12-11T13:44:23.079Z,81.28
2018-12-11T13:46:53.095Z,81.38
2018-12-11T13:49:22.867Z,81.65
2018-12-11T13:51:53.046Z,82.56
2018-12-11T13:54:22.794Z,82.94
2018-12-11T13:56:52.564Z,83.75
2018-12-11T14:02:11.424Z,84.01
2018-12-11T14:04:41.242Z,83.45
2018-12-11T14:07:10.938Z,84.02
2018-12-11T14:09:41.948Z,84.21
2018-12-11T14:12:12.174Z,84.67
2018-12-11T14:14:41.861Z,84.28
2018-12-11T14:17:11.235Z,84.91
2018-12-11T14:19:40.885Z,85.04
2018-12-11T14:22:10.764Z,84.10
2018-12-11T14:24:40.395Z,83.85
2018-12-11T14:27:09.742Z,84.00
2018-12-11T14:29:39.436Z,85.02
2018-12-11T14:32:09.121Z,86.14
2018-12-11T14:34:38.842Z,86.06
2018-12-11T14:37:08.550Z,85.83
2018-12-11T14:39:44.810Z,86.89
2018-12-11T14:42:14.174Z,86.85
2018-12-11T14:44:43.891Z,86.40
2018-12-11T14:47:13.622Z,87.21
2018-12-11T14:49:43.274Z,87.66
2018-12-11T14:52:13.143Z,87.20
2018-12-11T14:54:42.554Z,88.00
2018-12-11T14:57:12.447Z,88.26
2018-12-11T14:59:42.836Z,88.77
2018-12-11T15:02:12.492Z,88.79
2018-12-11T15:04:42.460Z,89.40
2018-12-11T15:07:11.837Z,89.48
2018-12-11T15:09:46.247Z,90.87
2018-12-11T15:12:15.981Z,90.66
2018-12-11T15:14:45.678Z,90.94
2018-12-11T15:17:15.096Z,91.11
2018-12-11T15:19:45.215Z,90.86
2018-12-11T15:22:14.946Z,91.50
2018-12-11T15:24:44.731Z,91.20
2018-12-11T15:27:14.381Z,91.17
2018-12-11T15:29:44.800Z,92.38
2018-12-11T15:32:14.515Z,92.06
2018-12-11T15:34:44.543Z,93.41
2018-12-11T15:37:14.565Z,92.79
2018-12-11T15:39:44.337Z,93.37
2018-12-11T15:42:14.472Z,93.31
2018-12-11T15:44:44.454Z,93.97
2018-12-11T15:47:14.074Z,94.07
2018-12-11T15:49:43.898Z,93.52
2018-12-11T15:52:13.622Z,93.09
2018-12-11T15:54:43.367Z,93.82
2018-12-11T15:57:14.880Z,93.35
2018-12-11T15:59:44.317Z,93.35
2018-12-11T16:02:13.750Z,94.02
2018-12-11T16:05:02.193Z,94.03
2018-12-11T16:07:32.016Z,94.70
2018-12-11T16:10:03.169Z,93.67
2018-12-11T16:12:55.719Z,93.24
2018-12-11T16:15:25.045Z,93.21
2018-12-11T16:17:54.922Z,93.60
2018-12-11T16:20:24.802Z,94.09
2018-12-11T16:22:54.279Z,93.74
2018-12-11T16:31:46.276Z,93.73
2018-12-11T16:46:49.799Z,93.01
2018-12-11T16:49:19.135Z,92.78
2018-12-11T16:51:51.537Z,93.21
2018-12-11T16:54:20.973Z,93.58
2018-12-11T16:56:50.408Z,93.48
2018-12-11T16:59:19.774Z,93.57
2018-12-11T17:01:49.178Z,94.12
2018-12-11T17:04:18.799Z,94.04
2018-12-11T17:06:48.559Z,94.24
2018-12-11T17:09:17.952Z,94.24
2018-12-11T17:11:47.702Z,94.29
2018-12-11T17:14:17.396Z,93.96
2018-12-11T17:16:47.210Z,93.29
2018-12-11T17:19:16.962Z,93.55
2018-12-11T17:21:47.152Z,93.37
2018-12-11T17:24:17.290Z,93.67
2018-12-11T17:26:47.768Z,93.79
2018-12-11T17:29:24.012Z,94.33
2018-12-11T17:32:03.847Z,94.47
2018-12-11T17:34:33.485Z,94.62
2018-12-11T17:37:02.865Z,94.57
2018-12-11T17:39:45.795Z,95.09
2018-12-11T17:42:29.607Z,95.50
2018-12-11T17:45:01.981Z,95.14
2018-12-11T17:50:40.872Z,95.75
2018-12-11T17:53:30.100Z,95.66
2018-12-11T17:55:59.886Z,95.64
2018-12-11T17:58:31.799Z,96.26
2018-12-11T18:01:01.933Z,95.90
2018-12-11T18:03:32.779Z,96.54
2018-12-11T18:06:02.935Z,96.37
2018-12-11T18:08:33.603Z,97.05
2018-12-11T18:11:03.213Z,96.52
2018-12-11T18:13:32.972Z,96.34
2018-12-11T18:16:03.767Z,96.12
2018-12-11T18:18:45.587Z,96.02
2018-12-11T18:21:40.514Z,95.80
2018-12-11T18:24:15.904Z,95.73
2018-12-11T18:39:19.197Z,96.78
2018-12-11T18:41:49.152Z,96.12
2018-12-11T18:44:21.072Z,96.71
2018-12-11T18:47:04.062Z,96.82
2018-12-11T18:49:36.158Z,96.79
2018-12-11T18:52:06.777Z,96.68
2018-12-11T18:54:37.508Z,96.55
2018-12-11T18:57:07.347Z,97.08
2018-12-11T18:59:37.562Z,96.76
2018-12-11T19:05:22.336Z,96.80
2018-12-11T19:08:04.218Z,97.12
2018-12-11T19:10:46.850Z,97.10
2018-12-11T19:19:41.049Z,96.80
2018-12-11T19:28:44.591Z,96.74
2018-12-11T19:31:20.978Z,97.46
2018-12-11T19:37:08.243Z,97.20
2018-12-11T19:46:11.135Z,96.98
2018-12-11T19:48:46.057Z,97.19
2018-12-11T19:51:20.289Z,97.47
2018-12-11T20:09:22.860Z,97.15
2018-12-11T20:21:35.960Z,96.48
2018-12-11T20:24:12.906Z,96.48
2018-12-11T20:27:03.728Z,96.66
2018-12-11T20:29:58.796Z,96.14
2018-12-11T20:32:48.658Z,96.73
2018-12-11T20:35:34.695Z,95.33
2018-12-11T20:38:11.256Z,94.83
2018-12-11T20:59:14.967Z,93.99
2018-12-11T21:02:05.212Z,94.04
2018-12-11T21:13:49.636Z,94.06
2018-12-11T21:37:55.285Z,94.07
2018-12-11T21:43:34.478Z,93.77
2018-12-11T21:58:37.325Z,94.38
2018-12-11T22:01:17.093Z,94.23
2018-12-11T22:12:56.823Z,94.79
2018-12-11T22:15:42.983Z,94.77
2018-12-11T22:18:18.900Z,94.57
2018-12-11T22:20:52.816Z,94.59
2018-12-11T22:26:46.331Z,93.81
2018-12-11T22:41:50.771Z,93.76
2018-12-11T22:44:36.680Z,94.57
2018-12-11T22:47:22.494Z,94.45
2018-12-11T22:49:59.064Z,94.42
2018-12-11T23:20:09.177Z,95.62
2018-12-11T23:22:45.160Z,95.23
2018-12-11T23:25:30.655Z,95.56
2018-12-11T23:28:06.291Z,95.14
2018-12-11T23:30:36.766Z,95.38
2018-12-11T23:33:22.007Z,95.52
2018-12-11T23:39:06.186Z,94.67
